Portsmouth, VA (23701)

1:09 AM EST on December 29, 2014 (GMT -0500)
West Cradock | Change Station
CLOSE
Current Station
Personal Weather Station
Location: Portsmouth, VA
Elevation: 13 ft
Nearby Weather Stations

Elev 13 ft 36.80 °N, 76.33 °W | Updated 0 second ago

Overcast
Overcast
58.0 °F
Feels Like 58.0 °F
N
3.0
Wind Variable Wind from NNW
Gusts 5.0 mph

Today
High -- | Low -- °F
--% Chance of Precip.
Yesterday
High -- | Low -- °F
Precip. -- in
7:17 AM 4:57 PM
First Quarter, 55% visible
Pressure 30.07 in
Visibility 1.0 miles
Clouds Overcast 8000 ft
Dew Point 57 °F
Humidity 96%
Rainfall 0.00 in
Snow Depth Not available.
UV 0 out of 12
Pollen .10 out of 12
Air Quality Not available.
Flu Activity Not available.
METAR KPVG 290555Z AUTO 00000KT 1SM OVC080 12/11 A3007 RMK AO1 10150 20120 54000

More Conditions Fewer Conditions

Pressure 30.07 in
Visibility 1.0 miles
Clouds Overcast 8000 ft
Dew Point 57 °F
Humidity 96%
Rainfall 0.00 in
Snow Depth Not available.
UV 0 out of 12
Pollen .10 out of 12
Air Quality Not available.
Flu Activity Not available.
METAR KPVG 290555Z AUTO 00000KT 1SM OVC080 12/11 A3007 RMK AO1 10150 20120 54000

More Conditions Fewer Conditions

10-Day Weather Forecast

Almanac

Astronomy

Dec. 29, 2014 Rise Set
Actual Time
Civil Twilight
Nautical Twilight
Astronomical Twilight
Moon
Length of Visible Light
Length of Day
Tomorrow will be .
, % of the Moon is Illuminated

Today's Extremes

State Highs State Lows

Community

WunderPhotos

Upload Photos

1,781,544 photos uploaded!

WunderBlogs® & News

Nearby

Air Quality

  Air Quality AQ Index Pollutant
Not available.

Snow Depth

Station Depth Elevation

Earthquake Activity

City Distance Mag. Time & Date
Minimum magnitude displayed is 2.5.

Coastal Water Temperatures

Place Temperature

Nearby Weather Stations